Time,TemperatureF,DewpointF,PressureIn,WindDirection,WindDirectionDegrees,WindSpeedMPH,WindSpeedGustMPH,Humidity,HourlyPrecipIn,Conditions,Clouds,dailyrainin,SoftwareType,DateUTC
2013-05-11 00:00:00,41.5,37.6,29.88,NW,315,0.0,0.0,86,0.00,,---,0.00,VWS V14.01,2013-05-11 04:00:00,
2013-05-11 00:01:00,41.5,37.6,29.88,North,0,0.0,0.0,86,0.00,,---,0.00,VWS V14.01,2013-05-11 04:01:00,
2013-05-11 00:02:00,41.5,37.6,29.88,North,0,0.0,0.0,86,0.00,,---,0.00,VWS V14.01,2013-05-11 04:02:00,
2013-05-11 00:03:00,41.5,37.6,29.88,North,0,0.0,0.0,86,0.00,,---,0.00,VWS V14.01,2013-05-11 04:03:00,
2013-05-11 00:04:00,41.5,37.6,29.88,NNW,338,3.1,3.1,86,0.00,,---,0.00,VWS V14.01,2013-05-11 04:04:00,
2013-05-11 00:05:00,41.5,37.6,29.88,NNW,338,3.1,3.1,86,0.00,,---,0.00,VWS V14.01,2013-05-11 04:05:00,
2013-05-11 00:10:00,41.5,37.6,29.88,NE,45,4.2,4.2,86,0.00,,---,0.00,VWS V14.01,2013-05-11 04:10:00,
2013-05-11 00:15:00,41.5,37.6,29.88,NNE,22,5.1,5.1,86,0.00,,---,0.00,VWS V14.01,2013-05-11 04:15:00,
2013-05-11 00:20:00,41.5,37.6,29.88,NW,315,6.4,6.4,86,0.00,,---,0.00,VWS V14.01,2013-05-11 04:20:00,
2013-05-11 00:25:00,41.5,37.6,29.88,North,0,0.0,0.0,86,0.00,,---,0.00,VWS V14.01,2013-05-11 04:25:00,
2013-05-11 00:30:00,41.5,37.6,29.88,NNW,338,3.5,3.5,86,0.00,,---,0.00,VWS V14.01,2013-05-11 04:30:00,
2013-05-11 00:35:00,41.3,37.4,29.88,NW,315,0.0,0.0,86,0.00,,---,0.00,VWS V14.01,2013-05-11 04:35:00,
2013-05-11 00:40:00,41.3,37.4,29.88,NW,315,0.0,0.0,86,0.00,,---,0.00,VWS V14.01,2013-05-11 04:40:00,
2013-05-11 00:45:00,41.3,37.4,29.88,NW,315,8.2,8.2,86,0.00,,---,0.00,VWS V14.01,2013-05-11 04:45:00,
2013-05-11 00:51:00,41.1,37.2,29.88,WNW,292,0.8,0.8,86,0.00,,---,0.00,VWS V14.01,2013-05-11 04:51:00,
2013-05-11 00:56:00,41.1,37.2,29.88,North,0,0.0,0.0,86,0.00,,---,0.00,VWS V14.01,2013-05-11 04:56:00,
2013-05-11 01:01:00,41.1,37.2,29.88,NW,315,0.0,0.0,86,0.00,,---,0.00,VWS V14.01,2013-05-11 05:01:00,
2013-05-11 01:06:00,41.0,37.1,29.88,NNE,22,0.0,2.4,86,0.00,,---,0.00,VWS V14.01,2013-05-11 05:06:00,
2013-05-11 01:11:00,41.0,37.1,29.88,NW,315,1.7,1.7,86,0.00,,---,0.00,VWS V14.01,2013-05-11 05:11:00,
2013-05-11 01:16:00,40.8,36.9,29.88,NW,315,1.3,1.3,86,0.00,,---,0.00,VWS V14.01,2013-05-11 05:16:00,
2013-05-11 01:21:00,40.8,36.9,29.88,North,0,0.0,0.0,86,0.00,,---,0.00,VWS V14.01,2013-05-11 05:21:00,
2013-05-11 01:26:00,40.8,36.9,29.88,NW,315,0.0,0.0,86,0.00,,---,0.00,VWS V14.01,2013-05-11 05:26:00,
2013-05-11 01:31:00,40.8,36.9,29.88,NNW,338,0.0,3.5,86,0.00,,---,0.00,VWS V14.01,2013-05-11 05:31:00,
2013-05-11 01:36:00,40.6,36.8,29.88,NW,315,1.5,5.3,86,0.00,,---,0.00,VWS V14.01,2013-05-11 05:36:00,
2013-05-11 01:41:00,40.6,36.8,29.88,WNW,292,3.8,3.8,86,0.00,,---,0.00,VWS V14.01,2013-05-11 05:41:00,
2013-05-11 01:46:00,40.6,36.8,29.88,WNW,292,0.0,0.0,86,0.00,,---,0.00,VWS V14.01,2013-05-11 05:46:00,
2013-05-11 01:51:00,40.6,36.8,29.88,NNW,338,0.0,0.0,86,0.00,,---,0.00,VWS V14.01,2013-05-11 05:51:00,
2013-05-11 01:56:00,40.4,36.5,29.88,West,270,0.0,0.0,86,0.00,,---,0.00,VWS V14.01,2013-05-11 05:56:00,
2013-05-11 02:01:00,40.4,36.5,29.87,NW,315,0.0,0.0,86,0.00,,---,0.00,VWS V14.01,2013-05-11 06:01:00,
2013-05-11 02:06:00,40.4,36.5,29.88,NW,315,0.0,0.0,86,0.00,,---,0.00,VWS V14.01,2013-05-11 06:06:00,
2013-05-11 02:11:00,40.4,36.5,29.87,NW,315,0.0,0.0,86,0.00,,---,0.00,VWS V14.01,2013-05-11 06:11:00,
2013-05-11 02:16:00,40.6,36.8,29.87,NNW,338,0.0,0.0,86,0.00,,---,0.00,VWS V14.01,2013-05-11 06:16:00,
2013-05-11 02:21:00,40.6,36.8,29.87,NW,315,0.0,0.0,86,0.00,,---,0.00,VWS V14.01,2013-05-11 06:21:00,
2013-05-11 02:26:00,40.6,36.8,29.87,NW,315,0.0,0.0,86,0.00,,---,0.00,VWS V14.01,2013-05-11 06:26:00,
2013-05-11 02:31:00,40.8,36.9,29.87,NE,45,0.0,0.0,86,0.00,,---,0.00,VWS V14.01,2013-05-11 06:31:00,
2013-05-11 02:36:00,40.8,36.9,29.87,NNW,338,0.0,0.0,86,0.00,,---,0.00,VWS V14.01,2013-05-11 06:36:00,
2013-05-11 02:41:00,40.8,36.9,29.87,NW,315,0.0,0.0,86,0.00,,---,0.00,VWS V14.01,2013-05-11 06:41:00,
2013-05-11 02:46:00,40.8,36.9,29.87,NNW,338,0.0,0.0,86,0.00,,---,0.00,VWS V14.01,2013-05-11 06:46:00,
2013-05-11 02:51:00,40.6,36.8,29.87,NW,315,0.0,1.3,86,0.00,,---,0.00,VWS V14.01,2013-05-11 06:51:00,
2013-05-11 02:56:00,40.6,36.8,29.87,WNW,292,3.3,3.3,86,0.00,,---,0.00,VWS V14.01,2013-05-11 06:56:00,
2013-05-11 03:01:00,40.6,36.8,29.87,NW,315,0.0,0.0,86,0.00,,---,0.00,VWS V14.01,2013-05-11 07:01:00,
2013-05-11 03:06:00,40.6,-3.2,29.87,NW,315,0.0,0.0,86,0.00,,---,0.00,VWS V14.01,2013-05-11 07:06:00,
2013-05-11 03:12:00,40.6,36.8,29.87,NNW,338,4.0,4.0,86,0.00,,---,0.00,VWS V14.01,2013-05-11 07:12:00,
2013-05-11 03:17:00,40.6,36.5,29.87,NNW,338,0.0,0.0,85,0.00,,---,0.00,VWS V14.01,2013-05-11 07:17:00,
2013-05-11 03:22:00,40.6,36.5,29.87,West,270,0.0,0.0,85,0.00,,---,0.00,VWS V14.01,2013-05-11 07:22:00,
2013-05-11 03:27:00,40.8,36.7,29.87,NW,315,0.0,0.0,85,0.00,,---,0.00,VWS V14.01,2013-05-11 07:27:00,
2013-05-11 03:32:00,40.8,36.9,29.87,NNW,338,0.0,0.0,86,0.00,,---,0.00,VWS V14.01,2013-05-11 07:32:00,
2013-05-11 03:37:00,40.8,36.7,29.87,NNW,338,0.0,0.0,85,0.00,,---,0.00,VWS V14.01,2013-05-11 07:37:00,
2013-05-11 03:42:00,40.8,36.9,29.87,West,270,0.0,0.0,86,0.00,,---,0.00,VWS V14.01,2013-05-11 07:42:00,
2013-05-11 03:47:00,40.8,36.9,29.87,WSW,248,0.0,0.0,86,0.00,,---,0.00,VWS V14.01,2013-05-11 07:47:00,
2013-05-11 03:52:00,40.8,36.9,29.87,WNW,292,0.0,0.0,86,0.00,,---,0.00,VWS V14.01,2013-05-11 07:52:00,
2013-05-11 03:57:00,40.8,36.7,29.87,SW,225,0.0,0.0,85,0.00,,---,0.00,VWS V14.01,2013-05-11 07:57:00,
2013-05-11 04:02:00,40.8,36.9,29.87,WNW,292,0.0,0.0,86,0.00,,---,0.00,VWS V14.01,2013-05-11 08:02:00,
2013-05-11 04:07:00,40.8,-3.2,29.87,WNW,292,0.0,0.0,86,0.00,,---,0.00,VWS V14.01,2013-05-11 08:07:00,
2013-05-11 04:13:00,40.8,36.9,29.87,WNW,292,0.0,0.0,86,0.00,,---,0.00,VWS V14.01,2013-05-11 08:13:00,
2013-05-11 04:18:00,41.1,36.9,29.87,NW,315,0.0,0.0,85,0.00,,---,0.00,VWS V14.01,2013-05-11 08:18:00,
2013-05-11 04:23:00,41.1,36.9,29.87,NNW,338,1.3,1.3,85,0.00,,---,0.00,VWS V14.01,2013-05-11 08:23:00,
2013-05-11 04:28:00,41.1,36.9,29.87,NW,315,1.1,1.1,85,0.00,,---,0.00,VWS V14.01,2013-05-11 08:28:00,
2013-05-11 04:33:00,41.1,36.9,29.87,WNW,292,0.0,0.0,85,0.00,,---,0.00,VWS V14.01,2013-05-11 08:33:00,
2013-05-11 04:38:00,41.1,36.9,29.86,NNW,338,1.1,2.0,85,0.00,,---,0.00,VWS V14.01,2013-05-11 08:38:00,
2013-05-11 04:43:00,41.1,36.9,29.86,NW,315,0.0,0.0,85,0.00,,---,0.00,VWS V14.01,2013-05-11 08:43:00,
2013-05-11 04:48:00,41.1,36.9,29.86,NNW,338,0.0,0.0,85,0.00,,---,0.00,VWS V14.01,2013-05-11 08:48:00,
2013-05-11 04:53:00,41.1,36.9,29.86,NW,315,0.0,0.0,85,0.00,,---,0.00,VWS V14.01,2013-05-11 08:53:00,
2013-05-11 04:58:00,41.1,36.9,29.86,NW,315,0.0,0.0,85,0.00,,---,0.00,VWS V14.01,2013-05-11 08:58:00,
2013-05-11 05:03:00,41.1,36.9,29.86,WNW,292,0.0,0.0,85,0.00,,---,0.00,VWS V14.01,2013-05-11 09:03:00,
2013-05-11 05:08:00,41.1,36.9,29.86,NW,315,0.0,0.0,85,0.00,,---,0.00,VWS V14.01,2013-05-11 09:08:00,
2013-05-11 05:13:00,41.1,36.9,29.86,West,270,0.0,0.0,85,0.00,,---,0.00,VWS V14.01,2013-05-11 09:13:00,
2013-05-11 05:18:00,41.1,36.9,29.86,WNW,292,0.0,0.0,85,0.00,,---,0.00,VWS V14.01,2013-05-11 09:18:00,
2013-05-11 05:23:00,41.3,37.1,29.86,WSW,248,0.0,0.0,85,0.00,,---,0.00,VWS V14.01,2013-05-11 09:23:00,
2013-05-11 05:28:00,41.3,37.1,29.86,WNW,292,0.0,0.0,85,0.00,,---,0.00,VWS V14.01,2013-05-11 09:28:00,
2013-05-11 05:33:00,41.3,37.1,29.86,NW,315,0.0,0.0,85,0.00,,---,0.00,VWS V14.01,2013-05-11 09:33:00,
2013-05-11 05:38:00,41.5,37.3,29.86,WSW,248,0.0,0.0,85,0.00,,---,0.00,VWS V14.01,2013-05-11 09:38:00,
2013-05-11 05:43:00,41.5,37.3,29.86,WSW,248,0.0,0.0,85,0.00,,---,0.00,VWS V14.01,2013-05-11 09:43:00,
2013-05-11 05:48:00,41.5,37.3,29.87,West,270,0.0,0.0,85,0.00,,---,0.00,VWS V14.01,2013-05-11 09:48:00,
2013-05-11 05:53:00,41.5,37.3,29.86,WNW,292,0.0,2.6,85,0.00,,---,0.00,VWS V14.01,2013-05-11 09:53:00,
2013-05-11 05:58:00,41.5,37.3,29.86,SW,225,0.0,0.0,85,0.00,,---,0.00,VWS V14.01,2013-05-11 09:58:00,
2013-05-11 06:03:00,41.5,37.3,29.86,North,0,0.0,0.0,85,0.00,,---,0.00,VWS V14.01,2013-05-11 10:03:00,
2013-05-11 06:08:00,41.5,37.3,29.86,WNW,292,0.0,0.0,85,0.00,,---,0.00,VWS V14.01,2013-05-11 10:08:00,
2013-05-11 06:13:00,41.5,37.3,29.86,NW,315,0.0,0.0,85,0.00,,---,0.00,VWS V14.01,2013-05-11 10:13:00,
2013-05-11 06:18:00,41.5,37.3,29.86,NNW,338,0.0,0.0,85,0.00,,---,0.00,VWS V14.01,2013-05-11 10:18:00,
2013-05-11 06:23:00,41.3,37.1,29.86,West,270,0.0,0.0,85,0.00,,---,0.00,VWS V14.01,2013-05-11 10:23:00,
2013-05-11 06:28:00,41.3,37.1,29.86,West,270,0.0,0.0,85,0.00,,---,0.00,VWS V14.01,2013-05-11 10:28:00,
2013-05-11 06:33:00,41.3,37.1,29.86,West,270,0.0,0.0,85,0.00,,---,0.00,VWS V14.01,2013-05-11 10:33:00,
2013-05-11 06:38:00,41.3,37.1,29.86,SW,225,0.0,0.0,85,0.00,,---,0.00,VWS V14.01,2013-05-11 10:38:00,
2013-05-11 06:43:00,41.3,37.1,29.86,WSW,248,0.0,0.0,85,0.00,,---,0.00,VWS V14.01,2013-05-11 10:43:00,
2013-05-11 06:48:00,41.5,37.3,29.86,WSW,248,0.0,0.0,85,0.00,,---,0.00,VWS V14.01,2013-05-11 10:48:00,
2013-05-11 06:53:00,41.5,37.3,29.86,WSW,248,0.0,0.0,85,0.00,,---,0.00,VWS V14.01,2013-05-11 10:53:00,
2013-05-11 06:58:00,41.5,37.3,29.85,West,270,0.0,0.0,85,0.00,,---,0.00,VWS V14.01,2013-05-11 10:58:00,
2013-05-11 07:03:00,41.5,37.3,29.86,West,270,0.0,0.0,85,0.00,,---,0.00,VWS V14.01,2013-05-11 11:03:00,
2013-05-11 07:08:00,41.5,37.3,29.87,WSW,248,1.1,7.8,85,0.00,,---,0.00,VWS V14.01,2013-05-11 11:08:00,
2013-05-11 07:13:00,41.5,37.3,29.86,NW,315,0.0,0.0,85,0.00,,---,0.00,VWS V14.01,2013-05-11 11:13:00,
2013-05-11 07:18:00,41.5,37.3,29.86,WSW,248,0.0,4.4,85,0.00,,---,0.00,VWS V14.01,2013-05-11 11:18:00,
2013-05-11 07:23:00,41.5,37.3,29.86,SW,225,2.2,6.9,85,0.00,,---,0.00,VWS V14.01,2013-05-11 11:23:00,
2013-05-11 07:28:00,41.5,37.3,29.86,WSW,248,4.6,4.6,85,0.00,,---,0.00,VWS V14.01,2013-05-11 11:28:00,
2013-05-11 07:33:00,41.7,37.5,29.87,West,270,0.0,0.0,85,0.00,,---,0.00,VWS V14.01,2013-05-11 11:33:00,
2013-05-11 07:38:00,41.7,37.5,29.86,West,270,0.0,0.0,85,0.00,,---,0.00,VWS V14.01,2013-05-11 11:38:00,
2013-05-11 07:43:00,41.7,37.5,29.86,WSW,248,0.0,0.0,85,0.00,,---,0.00,VWS V14.01,2013-05-11 11:43:00,
2013-05-11 07:48:00,41.9,37.7,29.86,WSW,248,0.0,0.0,85,0.00,,---,0.00,VWS V14.01,2013-05-11 11:48:00,
2013-05-11 07:53:00,42.0,37.8,29.86,SW,225,2.4,2.4,85,0.00,,---,0.00,VWS V14.01,2013-05-11 11:53:00,
2013-05-11 07:58:00,42.0,37.8,29.86,WSW,248,0.0,0.0,85,0.00,,---,0.00,VWS V14.01,2013-05-11 11:58:00,
2013-05-11 08:03:00,42.2,38.0,29.85,West,270,0.0,2.6,85,0.00,,---,0.00,VWS V14.01,2013-05-11 12:03:00,
2013-05-11 08:08:00,42.4,38.2,29.85,WSW,248,0.0,0.0,85,0.00,,---,0.00,VWS V14.01,2013-05-11 12:08:00,
2013-05-11 08:13:00,42.6,38.4,29.85,SSW,202,1.5,1.5,85,0.00,,---,0.00,VWS V14.01,2013-05-11 12:13:00,
2013-05-11 08:18:00,42.6,38.4,29.85,West,270,5.1,5.1,85,0.00,,---,0.00,VWS V14.01,2013-05-11 12:18:00,
2013-05-11 08:23:00,42.8,38.6,29.85,SW,225,0.0,0.0,85,0.00,,---,0.00,VWS V14.01,2013-05-11 12:23:00,
2013-05-11 08:28:00,42.9,38.7,29.85,West,270,3.3,3.3,85,0.00,,---,0.00,VWS V14.01,2013-05-11 12:28:00,
2013-05-11 08:33:00,42.9,38.7,29.85,WSW,248,8.2,8.2,85,0.00,,---,0.00,VWS V14.01,2013-05-11 12:33:00,
2013-05-11 08:38:00,43.1,38.9,29.84,WSW,248,7.3,7.3,85,0.00,,---,0.00,VWS V14.01,2013-05-11 12:38:00,
2013-05-11 08:43:00,43.3,39.1,29.84,West,270,0.0,0.0,85,0.00,,---,0.00,VWS V14.01,2013-05-11 12:43:00,
2013-05-11 08:48:00,43.5,39.3,29.84,SW,225,0.0,0.0,85,0.00,,---,0.00,VWS V14.01,2013-05-11 12:48:00,
2013-05-11 08:53:00,43.5,39.3,29.84,WSW,248,1.3,2.6,85,0.00,,---,0.00,VWS V14.01,2013-05-11 12:53:00,
2013-05-11 08:58:00,43.8,39.6,29.84,WSW,248,3.1,3.1,85,0.00,,---,0.00,VWS V14.01,2013-05-11 12:58:00,
2013-05-11 09:03:00,43.8,39.6,29.84,WSW,248,3.1,5.1,85,0.00,,---,0.00,VWS V14.01,2013-05-11 13:03:00,
2013-05-11 09:08:00,44.2,40.0,29.84,WSW,248,3.3,3.3,85,0.00,,---,0.00,VWS V14.01,2013-05-11 13:08:00,
2013-05-11 09:13:00,44.4,40.2,29.84,SSW,202,6.2,6.2,85,0.00,,---,0.00,VWS V14.01,2013-05-11 13:13:00,
2013-05-11 09:18:00,44.4,39.9,29.84,WSW,248,8.2,8.2,84,0.00,,---,0.00,VWS V14.01,2013-05-11 13:18:00,
2013-05-11 09:23:00,44.7,40.2,29.84,WSW,248,6.4,6.4,84,0.00,,---,0.00,VWS V14.01,2013-05-11 13:23:00,
2013-05-11 09:28:00,44.9,40.4,29.84,SW,225,7.1,7.1,84,0.00,,---,0.00,VWS V14.01,2013-05-11 13:28:00,
2013-05-11 09:33:00,45.1,40.6,29.83,West,270,1.1,1.1,84,0.00,,---,0.00,VWS V14.01,2013-05-11 13:33:00,
2013-05-11 09:38:00,45.3,40.8,29.83,SW,225,5.3,6.0,84,0.00,,---,0.00,VWS V14.01,2013-05-11 13:38:00,
2013-05-11 09:43:00,45.3,40.5,29.83,WSW,248,2.2,2.2,83,0.00,,---,0.00,VWS V14.01,2013-05-11 13:43:00,
2013-05-11 09:48:00,45.6,40.7,29.83,NNW,338,6.7,6.7,83,0.00,,---,0.00,VWS V14.01,2013-05-11 13:48:00,
2013-05-11 09:53:00,46.0,41.1,29.83,NW,315,2.4,4.0,83,0.00,,---,0.00,VWS V14.01,2013-05-11 13:53:00,
2013-05-11 09:58:00,46.2,41.3,29.83,SW,225,3.8,3.8,83,0.00,,---,0.00,VWS V14.01,2013-05-11 13:58:00,
2013-05-11 10:03:00,46.5,41.6,29.83,WSW,248,0.8,0.8,83,0.00,,---,0.00,VWS V14.01,2013-05-11 14:03:00,
2013-05-11 10:08:00,46.7,41.5,29.82,WSW,248,5.1,5.1,82,0.00,,---,0.00,VWS V14.01,2013-05-11 14:08:00,
2013-05-11 10:13:00,46.9,41.7,29.82,WSW,248,7.3,7.3,82,0.00,,---,0.00,VWS V14.01,2013-05-11 14:13:00,
2013-05-11 10:18:00,46.9,41.7,29.82,West,270,3.1,4.4,82,0.00,,---,0.00,VWS V14.01,2013-05-11 14:18:00,
2013-05-11 10:23:00,47.3,42.1,29.82,SSW,202,5.5,8.2,82,0.00,,---,0.00,VWS V14.01,2013-05-11 14:23:00,
2013-05-11 10:28:00,47.4,41.9,29.82,West,270,4.0,4.0,81,0.00,,---,0.00,VWS V14.01,2013-05-11 14:28:00,
2013-05-11 10:33:00,47.8,42.3,29.82,WSW,248,1.1,5.5,81,0.00,,---,0.00,VWS V14.01,2013-05-11 14:33:00,
2013-05-11 10:38:00,48.0,42.5,29.82,West,270,3.5,3.5,81,0.00,,---,0.00,VWS V14.01,2013-05-11 14:38:00,
2013-05-11 10:43:00,48.3,42.8,29.82,West,270,3.3,3.3,81,0.00,,---,0.00,VWS V14.01,2013-05-11 14:43:00,
2013-05-11 10:48:00,48.7,42.8,29.81,West,270,4.2,4.6,80,0.00,,---,0.00,VWS V14.01,2013-05-11 14:48:00,
2013-05-11 10:53:00,48.9,43.0,29.81,WSW,248,5.1,5.1,80,0.00,,---,0.00,VWS V14.01,2013-05-11 14:53:00,
2013-05-11 10:58:00,49.1,42.9,29.81,SW,225,5.3,5.3,79,0.00,,---,0.00,VWS V14.01,2013-05-11 14:58:00,
2013-05-11 11:03:00,49.2,43.0,29.81,West,270,4.9,4.9,79,0.00,,---,0.00,VWS V14.01,2013-05-11 15:03:00,
2013-05-11 11:08:00,49.6,43.4,29.81,West,270,7.3,7.3,79,0.00,,---,0.00,VWS V14.01,2013-05-11 15:08:00,
2013-05-11 11:13:00,49.8,43.2,29.81,SW,225,8.2,8.2,78,0.00,,---,0.00,VWS V14.01,2013-05-11 15:13:00,
2013-05-11 11:18:00,49.8,43.2,29.80,West,270,2.6,7.8,78,0.00,,---,0.00,VWS V14.01,2013-05-11 15:18:00,
2013-05-11 11:23:00,50.1,43.5,29.80,SW,225,4.9,8.7,78,0.00,,---,0.00,VWS V14.01,2013-05-11 15:23:00,
2013-05-11 11:28:00,50.3,43.7,29.80,West,270,4.4,4.4,78,0.00,,---,0.00,VWS V14.01,2013-05-11 15:28:00,
2013-05-11 11:33:00,50.7,43.8,29.79,SSE,158,4.0,7.6,77,0.00,,---,0.00,VWS V14.01,2013-05-11 15:33:00,
2013-05-11 11:38:00,51.0,43.7,29.79,SSE,158,3.1,4.9,76,0.00,,---,0.00,VWS V14.01,2013-05-11 15:38:00,
2013-05-11 11:43:00,51.4,44.1,29.79,SSW,202,1.3,1.3,76,0.00,,---,0.00,VWS V14.01,2013-05-11 15:43:00,
2013-05-11 11:48:00,51.6,44.0,29.79,WSW,248,4.6,7.6,75,0.00,,---,0.00,VWS V14.01,2013-05-11 15:48:00,
2013-05-11 11:53:00,51.8,44.1,29.78,SSE,158,3.5,4.2,75,0.00,,---,0.00,VWS V14.01,2013-05-11 15:53:00,
2013-05-11 11:58:00,51.9,44.2,29.78,SSE,158,6.2,6.2,75,0.00,,---,0.00,VWS V14.01,2013-05-11 15:58:00,
2013-05-11 12:03:00,52.8,44.8,29.78,WSW,248,6.9,6.9,74,0.00,,---,0.00,VWS V14.01,2013-05-11 16:03:00,
2013-05-11 12:08:00,53.0,45.0,29.77,SSW,202,0.0,6.9,74,0.00,,---,0.00,VWS V14.01,2013-05-11 16:08:00,
2013-05-11 12:13:00,53.4,45.3,29.77,SW,225,3.8,3.8,74,0.00,,---,0.00,VWS V14.01,2013-05-11 16:13:00,
2013-05-11 12:18:00,53.6,44.8,29.77,SW,225,2.0,8.2,72,0.00,,---,0.00,VWS V14.01,2013-05-11 16:18:00,
2013-05-11 12:23:00,53.7,45.3,29.77,SSW,202,0.0,5.1,73,0.00,,---,0.00,VWS V14.01,2013-05-11 16:23:00,
2013-05-11 12:28:00,53.9,45.5,29.76,SSW,202,8.0,8.0,73,0.00,,---,0.00,VWS V14.01,2013-05-11 16:28:00,
2013-05-11 12:33:00,54.3,45.5,29.76,South,180,6.4,6.4,72,0.00,,---,0.00,VWS V14.01,2013-05-11 16:33:00,
2013-05-11 12:38:00,54.5,45.3,29.76,SE,135,4.2,6.0,71,0.00,,---,0.00,VWS V14.01,2013-05-11 16:38:00,
2013-05-11 12:43:00,54.6,45.4,29.76,SSW,202,0.6,0.6,71,0.00,,---,0.00,VWS V14.01,2013-05-11 16:43:00,
2013-05-11 12:48:00,54.8,45.6,29.75,SSE,158,5.5,5.5,71,0.00,,---,0.00,VWS V14.01,2013-05-11 16:48:00,
2013-05-11 12:53:00,55.2,45.6,29.75,South,180,2.4,2.4,70,0.00,,---,0.00,VWS V14.01,2013-05-11 16:53:00,
2013-05-11 12:58:00,55.5,45.5,29.75,SW,225,7.1,7.1,69,0.00,,---,0.00,VWS V14.01,2013-05-11 16:58:00,
2013-05-11 13:03:00,55.7,45.7,29.74,SSE,158,6.7,8.2,69,0.00,,---,0.00,VWS V14.01,2013-05-11 17:03:00,
2013-05-11 13:08:00,55.9,46.3,29.74,South,180,7.1,7.1,70,0.00,,---,0.00,VWS V14.01,2013-05-11 17:08:00,
2013-05-11 13:13:00,56.4,46.4,29.74,South,180,6.9,6.9,69,0.00,,---,0.00,VWS V14.01,2013-05-11 17:13:00,
2013-05-11 13:18:00,57.0,46.2,29.74,SSE,158,8.2,8.2,67,0.00,,---,0.00,VWS V14.01,2013-05-11 17:18:00,
2013-05-11 13:23:00,57.3,46.5,29.74,South,180,3.1,6.4,67,0.00,,---,0.00,VWS V14.01,2013-05-11 17:23:00,
2013-05-11 13:28:00,57.3,46.0,29.74,SW,225,8.9,8.9,66,0.00,,---,0.00,VWS V14.01,2013-05-11 17:28:00,
2013-05-11 13:33:00,57.7,46.8,29.74,SW,225,4.6,4.6,67,0.00,,---,0.00,VWS V14.01,2013-05-11 17:33:00,
2013-05-11 13:38:00,58.1,46.8,29.74,SSW,202,1.1,1.1,66,0.00,,---,0.00,VWS V14.01,2013-05-11 17:38:00,
2013-05-11 13:43:00,58.2,46.5,29.74,SSE,158,6.0,6.0,65,0.00,,---,0.00,VWS V14.01,2013-05-11 17:43:00,
2013-05-11 13:48:00,58.1,46.0,29.74,SW,225,8.0,8.2,64,0.00,,---,0.00,VWS V14.01,2013-05-11 17:48:00,
2013-05-11 13:53:00,57.9,46.2,29.74,WSW,248,6.9,6.9,65,0.00,,---,0.00,VWS V14.01,2013-05-11 17:53:00,
2013-05-11 13:58:00,57.9,46.2,29.73,SSW,202,7.6,7.6,65,0.00,,---,0.00,VWS V14.01,2013-05-11 17:58:00,
2013-05-11 14:03:00,57.9,46.2,29.73,SW,225,8.9,12.7,65,0.00,,---,0.00,VWS V14.01,2013-05-11 18:03:00,
2013-05-11 14:08:00,57.9,46.2,29.73,SSW,202,6.4,6.4,65,0.00,,---,0.00,VWS V14.01,2013-05-11 18:08:00,
2013-05-11 14:13:00,57.9,46.2,29.72,SW,225,5.8,5.8,65,0.00,,---,0.00,VWS V14.01,2013-05-11 18:13:00,
2013-05-11 14:18:00,57.9,45.8,29.72,SW,225,5.3,7.8,64,0.00,,---,0.00,VWS V14.01,2013-05-11 18:18:00,
2013-05-11 14:23:00,57.9,46.2,29.72,SW,225,8.5,8.5,65,0.00,,---,0.00,VWS V14.01,2013-05-11 18:23:00,
2013-05-11 14:28:00,58.2,46.1,29.71,SSE,158,4.2,4.2,64,0.00,,---,0.00,VWS V14.01,2013-05-11 18:28:00,
2013-05-11 14:33:00,58.6,46.5,29.71,SSW,202,8.5,8.5,64,0.00,,---,0.00,VWS V14.01,2013-05-11 18:33:00,
2013-05-11 14:38:00,58.6,46.5,29.70,WSW,248,6.0,6.0,64,0.00,,---,0.00,VWS V14.01,2013-05-11 18:38:00,
2013-05-11 14:43:00,58.8,46.7,29.70,SSE,158,6.9,6.9,64,0.00,,---,0.00,VWS V14.01,2013-05-11 18:43:00,
2013-05-11 14:48:00,59.0,46.8,29.70,SW,225,5.5,5.5,64,0.00,,---,0.00,VWS V14.01,2013-05-11 18:48:00,
2013-05-11 14:53:00,59.5,46.5,29.70,SW,225,8.5,8.5,62,0.00,,---,0.00,VWS V14.01,2013-05-11 18:53:00,
2013-05-11 14:58:00,59.5,46.5,29.70,SW,225,11.8,11.8,62,0.00,,---,0.00,VWS V14.01,2013-05-11 18:58:00,
2013-05-11 15:03:00,58.8,45.4,29.70,WSW,248,5.3,13.6,61,0.00,,---,0.00,VWS V14.01,2013-05-11 19:03:00,
2013-05-11 15:08:00,58.8,45.8,29.70,SW,225,6.2,6.2,62,0.00,,---,0.00,VWS V14.01,2013-05-11 19:08:00,
2013-05-11 15:13:00,59.1,46.1,29.69,WSW,248,3.1,3.1,62,0.00,,---,0.00,VWS V14.01,2013-05-11 19:13:00,
2013-05-11 15:18:00,59.5,46.9,29.69,SW,225,3.8,6.0,63,0.00,,---,0.00,VWS V14.01,2013-05-11 19:18:00,
2013-05-11 15:23:00,59.7,47.1,29.69,SSW,202,6.7,6.7,63,0.00,,---,0.00,VWS V14.01,2013-05-11 19:23:00,
2013-05-11 15:28:00,59.9,46.9,29.68,WSW,248,4.6,4.6,62,0.00,,---,0.00,VWS V14.01,2013-05-11 19:28:00,
2013-05-11 15:33:00,59.5,46.5,29.69,WSW,248,6.0,9.8,62,0.00,,---,0.00,VWS V14.01,2013-05-11 19:33:00,
2013-05-11 15:38:00,59.5,46.5,29.68,SW,225,6.0,6.0,62,0.00,,---,0.00,VWS V14.01,2013-05-11 19:38:00,
2013-05-11 15:43:00,59.1,46.1,29.68,SW,225,6.7,6.7,62,0.00,,---,0.00,VWS V14.01,2013-05-11 19:43:00,
2013-05-11 15:48:00,58.8,45.8,29.68,WSW,248,5.1,8.5,62,0.00,,---,0.00,VWS V14.01,2013-05-11 19:48:00,
2013-05-11 15:53:00,58.8,45.8,29.68,WSW,248,7.3,7.3,62,0.00,,---,0.00,VWS V14.01,2013-05-11 19:53:00,
2013-05-11 15:58:00,58.8,45.8,29.67,SW,225,7.3,7.3,62,0.00,,---,0.00,VWS V14.01,2013-05-11 19:58:00,
2013-05-11 16:03:00,58.8,45.4,29.67,SSW,202,5.8,5.8,61,0.00,,---,0.00,VWS V14.01,2013-05-11 20:03:00,
2013-05-11 16:08:00,58.8,45.4,29.67,WSW,248,5.3,5.3,61,0.00,,---,0.00,VWS V14.01,2013-05-11 20:08:00,
2013-05-11 16:13:00,58.8,45.8,29.67,SW,225,8.0,8.0,62,0.00,,---,0.00,VWS V14.01,2013-05-11 20:13:00,
2013-05-11 16:18:00,58.2,46.5,29.68,WSW,248,13.6,13.6,65,0.00,,---,0.00,VWS V14.01,2013-05-11 20:18:00,
2013-05-11 16:23:00,57.3,46.5,29.68,WSW,248,7.8,7.8,67,0.00,,---,0.00,VWS V14.01,2013-05-11 20:23:00,
2013-05-11 16:28:00,56.6,46.6,29.69,West,270,12.0,12.0,69,0.00,,---,0.00,VWS V14.01,2013-05-11 20:28:00,
2013-05-11 16:33:00,55.5,46.6,29.69,West,270,8.7,11.4,72,0.00,,---,0.00,VWS V14.01,2013-05-11 20:33:00,
2013-05-11 16:38:00,55.2,47.1,29.69,WSW,248,7.3,7.3,74,0.00,,---,0.00,VWS V14.01,2013-05-11 20:38:00,
2013-05-11 16:43:00,54.5,47.1,29.69,West,270,10.2,10.2,76,0.00,,---,0.00,VWS V14.01,2013-05-11 20:43:00,
2013-05-11 16:48:00,53.9,46.9,29.69,SW,225,6.9,8.5,77,0.00,,---,0.00,VWS V14.01,2013-05-11 20:48:00,
2013-05-11 16:53:00,53.7,47.0,29.69,SSW,202,2.0,2.0,78,0.00,,---,0.00,VWS V14.01,2013-05-11 20:53:00,
2013-05-11 16:58:00,53.4,47.1,29.69,SW,225,8.7,8.7,79,0.00,,---,0.00,VWS V14.01,2013-05-11 20:58:00,
2013-05-11 17:03:00,52.8,46.8,29.69,SSW,202,9.6,9.6,80,0.00,,---,0.00,VWS V14.01,2013-05-11 21:03:00,
2013-05-11 17:08:00,52.7,46.7,29.69,WSW,248,1.7,1.7,80,0.00,,---,0.00,VWS V14.01,2013-05-11 21:08:00,
2013-05-11 17:13:00,52.5,46.8,29.69,WSW,248,1.7,1.7,81,0.00,,---,0.00,VWS V14.01,2013-05-11 21:13:00,
2013-05-11 17:18:00,52.5,47.2,29.69,SW,225,7.6,12.5,82,0.00,,---,0.00,VWS V14.01,2013-05-11 21:18:00,
2013-05-11 17:23:00,52.3,46.7,29.69,SSW,202,6.7,6.7,81,0.00,,---,0.00,VWS V14.01,2013-05-11 21:23:00,
2013-05-11 17:28:00,52.3,47.0,29.69,WSW,248,5.3,5.3,82,0.00,,---,0.00,VWS V14.01,2013-05-11 21:28:00,
2013-05-11 17:33:00,52.1,46.1,29.71,NW,315,6.0,14.7,80,0.00,,---,0.00,VWS V14.01,2013-05-11 21:33:00,
2013-05-11 17:38:00,51.0,43.7,29.72,NW,315,6.4,6.4,76,0.00,,---,0.00,VWS V14.01,2013-05-11 21:38:00,
2013-05-11 17:43:00,50.1,42.8,29.73,WSW,248,8.7,8.7,76,0.00,,---,0.00,VWS V14.01,2013-05-11 21:43:00,
2013-05-11 17:48:00,48.7,40.8,29.74,West,270,5.1,5.8,74,0.00,,---,0.00,VWS V14.01,2013-05-11 21:48:00,
2013-05-11 17:53:00,48.0,40.5,29.74,NNW,338,8.0,8.0,75,0.00,,---,0.00,VWS V14.01,2013-05-11 21:53:00,
2013-05-11 17:58:00,47.3,39.5,29.75,NW,315,12.5,12.5,74,0.00,,---,0.00,VWS V14.01,2013-05-11 21:58:00,
2013-05-11 18:03:00,46.2,38.4,29.75,SW,225,4.4,6.0,74,0.00,,---,0.00,VWS V14.01,2013-05-11 22:03:00,
2013-05-11 18:08:00,46.0,38.5,29.76,NNW,338,8.2,8.2,75,0.00,,---,0.00,VWS V14.01,2013-05-11 22:08:00,
2013-05-11 18:13:00,45.6,37.8,29.76,NNW,338,11.4,11.4,74,0.00,,---,0.00,VWS V14.01,2013-05-11 22:13:00,
2013-05-11 18:19:00,45.1,37.0,29.77,North,0,13.4,13.4,73,0.00,,---,0.00,VWS V14.01,2013-05-11 22:19:00,
2013-05-11 18:24:00,44.9,37.1,29.78,WSW,248,8.0,8.0,74,0.00,,---,0.00,VWS V14.01,2013-05-11 22:24:00,
2013-05-11 18:29:00,44.6,36.5,29.78,NNW,338,8.9,8.9,73,0.00,,---,0.00,VWS V14.01,2013-05-11 22:29:00,
2013-05-11 18:34:00,44.2,36.1,29.79,West,270,8.0,8.0,73,0.00,,---,0.00,VWS V14.01,2013-05-11 22:34:00,
2013-05-11 18:39:00,43.7,35.6,29.80,North,0,0.0,8.0,73,0.00,,---,0.00,VWS V14.01,2013-05-11 22:39:00,
2013-05-11 18:44:00,43.1,35.0,29.80,WSW,248,6.0,8.5,73,0.00,,---,0.00,VWS V14.01,2013-05-11 22:44:00,
2013-05-11 18:49:00,42.6,34.6,29.80,West,270,3.8,3.8,73,0.00,,---,0.00,VWS V14.01,2013-05-11 22:49:00,
2013-05-11 18:54:00,42.0,34.3,29.81,WNW,292,5.1,14.7,74,0.00,,---,0.00,VWS V14.01,2013-05-11 22:54:00,
2013-05-11 18:59:00,41.7,33.7,29.82,North,0,11.1,11.1,73,0.00,,---,0.00,VWS V14.01,2013-05-11 22:59:00,
2013-05-11 19:04:00,41.5,33.5,29.82,WSW,248,6.9,6.9,73,0.00,,---,0.00,VWS V14.01,2013-05-11 23:04:00,
2013-05-11 19:09:00,41.5,33.2,29.82,WNW,292,9.8,9.8,72,0.00,,---,0.00,VWS V14.01,2013-05-11 23:09:00,
2013-05-11 19:14:00,41.5,32.8,29.82,West,270,6.7,6.7,71,0.00,,---,0.00,VWS V14.01,2013-05-11 23:14:00,
2013-05-11 19:19:00,41.5,32.8,29.83,West,270,5.5,5.5,71,0.00,,---,0.00,VWS V14.01,2013-05-11 23:19:00,
2013-05-11 19:24:00,41.7,33.3,29.83,NW,315,7.8,7.8,72,0.00,,---,0.00,VWS V14.01,2013-05-11 23:24:00,
2013-05-11 19:29:00,41.7,33.0,29.83,NNE,22,6.7,6.7,71,0.00,,---,0.00,VWS V14.01,2013-05-11 23:29:00,
2013-05-11 19:34:00,41.9,33.2,29.84,WNW,292,7.3,7.3,71,0.00,,---,0.00,VWS V14.01,2013-05-11 23:34:00,
2013-05-11 19:39:00,42.0,33.3,29.84,NNW,338,11.4,16.5,71,0.00,,---,0.00,VWS V14.01,2013-05-11 23:39:00,
2013-05-11 19:44:00,42.0,32.9,29.84,WSW,248,7.1,7.1,70,0.00,,---,0.00,VWS V14.01,2013-05-11 23:44:00,
2013-05-11 19:49:00,42.0,32.9,29.84,WSW,248,8.0,8.0,70,0.00,,---,0.00,VWS V14.01,2013-05-11 23:49:00,
2013-05-11 19:54:00,42.0,32.9,29.84,NNW,338,9.8,9.8,70,0.00,,---,0.00,VWS V14.01,2013-05-11 23:54:00,
2013-05-11 19:59:00,41.9,32.1,29.85,WSW,248,4.6,13.4,68,0.00,,---,0.00,VWS V14.01,2013-05-11 23:59:00,
2013-05-11 20:04:00,41.9,32.1,29.85,West,270,6.7,6.7,68,0.00,,---,0.00,VWS V14.01,2013-05-12 00:04:00,
2013-05-11 20:09:00,41.9,32.1,29.85,NW,315,5.3,7.8,68,0.00,,---,0.00,VWS V14.01,2013-05-12 00:09:00,
2013-05-11 20:14:00,41.9,32.5,29.85,NW,315,0.8,7.1,69,0.00,,---,0.00,VWS V14.01,2013-05-12 00:14:00,
2013-05-11 20:19:00,41.7,31.9,29.85,WNW,292,6.9,6.9,68,0.00,,---,0.00,VWS V14.01,2013-05-12 00:19:00,
2013-05-11 20:24:00,41.5,31.7,29.85,NNW,338,7.6,7.6,68,0.00,,---,0.00,VWS V14.01,2013-05-12 00:24:00,
2013-05-11 20:29:00,41.5,31.7,29.85,West,270,2.2,5.5,68,0.00,,---,0.00,VWS V14.01,2013-05-12 00:29:00,
2013-05-11 20:34:00,41.3,31.5,29.85,WNW,292,6.7,6.7,68,0.00,,---,0.00,VWS V14.01,2013-05-12 00:34:00,
2013-05-11 20:39:00,41.1,31.7,29.85,West,270,3.5,3.5,69,0.00,,---,0.00,VWS V14.01,2013-05-12 00:39:00,
2013-05-11 20:44:00,41.1,31.7,29.85,NW,315,0.0,0.6,69,0.00,,---,0.00,VWS V14.01,2013-05-12 00:44:00,
2013-05-11 20:49:00,41.0,32.0,29.85,West,270,2.6,2.6,70,0.00,,---,0.00,VWS V14.01,2013-05-12 00:49:00,
2013-05-11 20:54:00,41.0,32.0,29.85,West,270,0.0,0.0,70,0.00,,---,0.00,VWS V14.01,2013-05-12 00:54:00,
2013-05-11 20:59:00,41.0,32.0,29.85,NW,315,0.0,5.1,70,0.00,,---,0.00,VWS V14.01,2013-05-12 00:59:00,
2013-05-11 21:04:00,40.8,31.8,29.85,SW,225,6.9,6.9,70,0.00,,---,0.00,VWS V14.01,2013-05-12 01:04:00,
2013-05-11 21:09:00,40.8,32.1,29.86,WSW,248,2.2,3.5,71,0.00,,---,0.00,VWS V14.01,2013-05-12 01:09:00,
2013-05-11 21:14:00,40.8,32.1,29.86,West,270,0.0,1.3,71,0.00,,---,0.00,VWS V14.01,2013-05-12 01:14:00,
2013-05-11 21:19:00,40.6,32.0,29.86,WSW,248,7.6,7.6,71,0.00,,---,0.00,VWS V14.01,2013-05-12 01:19:00,
2013-05-11 21:24:00,40.6,32.0,29.86,WSW,248,0.0,4.0,71,0.00,,---,0.00,VWS V14.01,2013-05-12 01:24:00,
2013-05-11 21:29:00,40.6,32.3,29.86,WSW,248,4.0,4.0,72,0.00,,---,0.00,VWS V14.01,2013-05-12 01:29:00,
2013-05-11 21:34:00,40.6,32.3,29.86,West,270,1.5,1.5,72,0.00,,---,0.00,VWS V14.01,2013-05-12 01:34:00,
2013-05-11 21:39:00,40.4,32.1,29.86,WSW,248,1.7,1.7,72,0.00,,---,0.00,VWS V14.01,2013-05-12 01:39:00,
2013-05-11 21:44:00,40.2,31.9,29.86,WSW,248,1.1,3.5,72,0.00,,---,0.00,VWS V14.01,2013-05-12 01:44:00,
2013-05-11 21:49:00,40.2,31.9,29.86,WSW,248,0.0,0.0,72,0.00,,---,0.00,VWS V14.01,2013-05-12 01:49:00,
2013-05-11 21:54:00,40.1,31.8,29.86,WSW,248,2.4,4.9,72,0.00,,---,0.00,VWS V14.01,2013-05-12 01:54:00,
2013-05-11 21:59:00,40.1,31.8,29.86,West,270,1.1,1.5,72,0.00,,---,0.00,VWS V14.01,2013-05-12 01:59:00,
2013-05-11 22:04:00,39.9,31.6,29.86,SW,225,0.0,0.0,72,0.00,,---,0.00,VWS V14.01,2013-05-12 02:04:00,
2013-05-11 22:09:00,39.9,32.0,29.85,SSW,202,1.1,1.1,73,0.00,,---,0.00,VWS V14.01,2013-05-12 02:09:00,
2013-05-11 22:14:00,39.7,31.8,29.85,West,270,0.0,1.7,73,0.00,,---,0.00,VWS V14.01,2013-05-12 02:14:00,
2013-05-11 22:19:00,39.7,31.8,29.85,SW,225,0.6,0.6,73,0.00,,---,0.00,VWS V14.01,2013-05-12 02:19:00,
2013-05-11 22:24:00,39.5,31.6,29.86,SSW,202,0.6,0.6,73,0.00,,---,0.00,VWS V14.01,2013-05-12 02:24:00,
2013-05-11 22:29:00,39.5,31.9,29.86,SSW,202,2.4,3.1,74,0.00,,---,0.00,VWS V14.01,2013-05-12 02:29:00,
2013-05-11 22:34:00,39.3,31.7,29.85,SSW,202,2.6,2.6,74,0.00,,---,0.00,VWS V14.01,2013-05-12 02:34:00,
2013-05-11 22:39:00,39.3,31.7,29.85,SSW,202,6.0,7.3,74,0.00,,---,0.00,VWS V14.01,2013-05-12 02:39:00,
2013-05-11 22:44:00,39.3,32.0,29.85,SW,225,3.8,6.7,75,0.00,,---,0.00,VWS V14.01,2013-05-12 02:44:00,
2013-05-11 22:49:00,39.0,31.8,29.85,SW,225,4.9,4.9,75,0.00,,---,0.00,VWS V14.01,2013-05-12 02:49:00,
2013-05-11 22:54:00,39.0,31.8,29.85,SSW,202,3.3,3.3,75,0.00,,---,0.00,VWS V14.01,2013-05-12 02:54:00,
2013-05-11 22:59:00,39.0,31.8,29.85,West,270,2.6,2.6,75,0.00,,---,0.00,VWS V14.01,2013-05-12 02:59:00,
2013-05-11 23:04:00,39.0,32.1,29.85,SW,225,2.6,2.6,76,0.00,,---,0.00,VWS V14.01,2013-05-12 03:04:00,
2013-05-11 23:09:00,39.0,32.1,29.84,SW,225,1.3,2.4,76,0.00,,---,0.00,VWS V14.01,2013-05-12 03:09:00,
2013-05-11 23:14:00,39.0,32.1,29.85,WSW,248,3.1,3.1,76,0.00,,---,0.00,VWS V14.01,2013-05-12 03:14:00,
2013-05-11 23:19:00,39.0,32.1,29.84,WSW,248,5.1,5.1,76,0.00,,---,0.00,VWS V14.01,2013-05-12 03:19:00,
2013-05-11 23:24:00,39.0,32.1,29.84,SW,225,1.5,2.0,76,0.00,,---,0.00,VWS V14.01,2013-05-12 03:24:00,
2013-05-11 23:29:00,39.0,32.1,29.84,SW,225,4.9,4.9,76,0.00,,---,0.00,VWS V14.01,2013-05-12 03:29:00,
2013-05-11 23:34:00,39.0,32.1,29.84,SW,225,3.5,3.5,76,0.00,,---,0.00,VWS V14.01,2013-05-12 03:34:00,
2013-05-11 23:39:00,39.0,32.1,29.85,SW,225,4.9,4.9,76,0.00,,---,0.00,VWS V14.01,2013-05-12 03:39:00,
2013-05-11 23:44:00,38.8,31.9,29.84,SW,225,4.4,4.4,76,0.00,,---,0.00,VWS V14.01,2013-05-12 03:44:00,
2013-05-11 23:49:00,38.8,32.2,29.84,SW,225,3.1,3.1,77,0.00,,---,0.00,VWS V14.01,2013-05-12 03:49:00,
2013-05-11 23:54:00,38.8,32.2,29.84,WSW,248,2.9,4.0,77,0.00,,---,0.00,VWS V14.01,2013-05-12 03:54:00,
2013-05-11 23:59:00,38.8,32.2,29.84,SW,225,3.5,3.5,77,0.00,,---,0.00,VWS V14.01,2013-05-12 03:59:00,